createdAt,value
2019-05-11T00:00:29.615Z,79.17
2019-05-11T00:04:37.437Z,78.91
2019-05-11T00:08:46.200Z,79.39
2019-05-11T00:12:53.867Z,79.72
2019-05-11T00:17:02.116Z,79.52
2019-05-11T00:21:10.190Z,79.83
2019-05-11T00:25:17.920Z,80.57
2019-05-11T00:29:26.013Z,80.70
2019-05-11T00:33:34.655Z,80.59
2019-05-11T00:37:42.673Z,80.09
2019-05-11T00:41:50.597Z,79.15
2019-05-11T00:45:58.903Z,79.73
2019-05-11T00:50:08.154Z,79.92
2019-05-11T00:54:16.364Z,79.98
2019-05-11T00:58:24.631Z,79.87
2019-05-11T01:02:32.326Z,79.91
2019-05-11T01:06:40.604Z,80.24
2019-05-11T01:10:48.428Z,80.18
2019-05-11T01:14:56.239Z,79.96
2019-05-11T01:19:04.159Z,79.80
2019-05-11T01:23:11.858Z,79.88
2019-05-11T01:27:20.685Z,80.11
2019-05-11T01:31:29.321Z,80.02
2019-05-11T01:35:37.524Z,79.84
2019-05-11T01:39:45.758Z,79.92
2019-05-11T01:43:54.292Z,80.48
2019-05-11T01:48:02.007Z,80.28
2019-05-11T01:52:10.822Z,80.04
2019-05-11T01:56:18.534Z,79.88
2019-05-11T02:00:26.342Z,79.70
2019-05-11T02:04:34.569Z,79.43
2019-05-11T02:08:42.180Z,79.61
2019-05-11T02:12:50.374Z,79.41
2019-05-11T02:16:58.522Z,79.58
2019-05-11T02:21:06.126Z,79.76
2019-05-11T02:25:15.043Z,78.96
2019-05-11T02:29:23.279Z,79.17
2019-05-11T02:33:30.893Z,79.21
2019-05-11T02:37:40.429Z,80.62
2019-05-11T02:41:48.848Z,80.37
2019-05-11T02:45:57.175Z,80.04
2019-05-11T02:50:05.702Z,80.40
2019-05-11T02:54:14.340Z,81.00
2019-05-11T02:58:22.560Z,80.81
2019-05-11T03:02:30.564Z,81.05
2019-05-11T03:06:38.580Z,81.22
2019-05-11T03:10:46.809Z,79.67
2019-05-11T03:14:54.502Z,79.43
2019-05-11T03:19:01.957Z,78.36
2019-05-11T03:23:10.545Z,77.26
2019-05-11T03:27:18.545Z,76.99
2019-05-11T03:31:26.873Z,77.67
2019-05-11T03:35:35.070Z,77.07
2019-05-11T03:39:42.804Z,77.81
2019-05-11T03:43:51.016Z,76.33
2019-05-11T03:47:59.069Z,78.01
2019-05-11T03:52:07.164Z,77.93
2019-05-11T03:56:15.544Z,77.34
2019-05-11T04:00:24.209Z,77.79
2019-05-11T04:04:31.920Z,77.26
2019-05-11T04:08:39.819Z,77.58
2019-05-11T04:12:47.536Z,78.25
2019-05-11T04:16:55.746Z,77.96
2019-05-11T04:21:07.138Z,78.41
2019-05-11T04:25:15.051Z,77.74
2019-05-11T04:29:23.178Z,79.06
2019-05-11T04:33:33.191Z,79.59
2019-05-11T04:37:40.744Z,76.99
2019-05-11T04:41:49.172Z,76.96
2019-05-11T04:45:56.856Z,77.61
2019-05-11T04:50:05.115Z,76.83
2019-05-11T04:54:13.540Z,75.79
2019-05-11T04:58:21.117Z,73.56
2019-05-11T05:02:29.338Z,74.69
2019-05-11T05:06:39.003Z,73.46
2019-05-11T05:10:46.693Z,73.53
2019-05-11T05:14:54.555Z,73.08
2019-05-11T05:19:02.114Z,71.38
2019-05-11T05:23:10.326Z,71.98
2019-05-11T05:27:18.443Z,71.38
2019-05-11T05:31:25.942Z,70.56
2019-05-11T05:35:34.402Z,71.58
2019-05-11T05:39:42.566Z,71.98
2019-05-11T05:43:51.612Z,71.96
2019-05-11T05:48:00.019Z,72.16
2019-05-11T05:52:08.763Z,70.70
2019-05-11T05:56:16.497Z,69.55
2019-05-11T06:00:24.274Z,68.66
2019-05-11T06:04:32.743Z,67.93
2019-05-11T06:08:43.300Z,66.37
2019-05-11T06:12:51.334Z,67.36
2019-05-11T06:16:58.933Z,66.96
2019-05-11T06:21:07.050Z,67.89
2019-05-11T06:25:14.974Z,66.08
2019-05-11T06:29:22.681Z,65.97
2019-05-11T06:33:30.506Z,66.13
2019-05-11T06:37:38.081Z,64.73
2019-05-11T06:41:46.045Z,64.52
2019-05-11T06:45:54.124Z,64.60
2019-05-11T06:50:01.821Z,63.80
2019-05-11T06:54:11.254Z,65.15
2019-05-11T06:58:19.392Z,64.90
2019-05-11T07:02:27.220Z,65.60
2019-05-11T07:06:35.411Z,65.05
2019-05-11T07:10:43.011Z,65.93
2019-05-11T07:14:51.748Z,64.87
2019-05-11T07:19:00.393Z,63.78
2019-05-11T07:23:08.297Z,64.76
2019-05-11T07:27:17.937Z,62.92
2019-05-11T07:31:26.355Z,61.84
2019-05-11T07:35:34.613Z,63.18
2019-05-11T07:39:42.202Z,57.43
2019-05-11T07:43:50.145Z,58.39
2019-05-11T07:47:59.036Z,57.97
2019-05-11T07:52:07.976Z,57.97
2019-05-11T07:56:18.523Z,58.33
2019-05-11T08:00:28.014Z,56.46
2019-05-11T08:04:37.855Z,54.63
2019-05-11T08:08:48.984Z,54.66
2019-05-11T08:12:58.725Z,55.42
2019-05-11T08:17:08.406Z,55.75
2019-05-11T08:21:17.652Z,56.94
2019-05-11T08:25:25.205Z,55.84
2019-05-11T08:29:32.906Z,54.67
2019-05-11T08:33:40.949Z,52.25
2019-05-11T08:37:49.855Z,48.85
2019-05-11T08:41:58.990Z,53.16
2019-05-11T08:46:08.039Z,51.00
2019-05-11T08:50:18.507Z,52.38
2019-05-11T08:54:25.362Z,55.23
2019-05-11T08:58:33.249Z,56.76
2019-05-11T09:02:41.443Z,56.76
2019-05-11T09:06:49.036Z,57.92
2019-05-11T09:10:58.204Z,57.62
2019-05-11T09:15:08.755Z,54.96
2019-05-11T09:19:17.817Z,54.96
2019-05-11T09:23:34.504Z,52.37
2019-05-11T09:27:37.596Z,50.23
2019-05-11T09:31:45.954Z,50.45
2019-05-11T09:35:54.467Z,50.54
2019-05-11T09:40:02.697Z,50.12
2019-05-11T09:44:10.587Z,50.98
2019-05-11T09:48:18.812Z,51.21
2019-05-11T09:52:32.505Z,51.85
2019-05-11T09:56:40.378Z,50.08
2019-05-11T10:00:48.903Z,48.34
2019-05-11T10:04:57.849Z,48.01
2019-05-11T10:09:08.341Z,47.09
2019-05-11T10:13:18.559Z,46.74
2019-05-11T10:17:28.636Z,45.06
2019-05-11T10:21:38.483Z,47.80
2019-05-11T10:25:47.941Z,49.03
2019-05-11T10:29:55.474Z,45.70
2019-05-11T10:34:03.991Z,46.12
2019-05-11T10:38:11.458Z,44.82
2019-05-11T10:42:19.947Z,43.93
2019-05-11T10:46:28.692Z,42.35
2019-05-11T10:50:38.071Z,42.41
2019-05-11T10:54:47.828Z,43.58
2019-05-11T10:58:55.774Z,44.17
2019-05-11T11:03:03.472Z,45.70
2019-05-11T11:07:11.673Z,44.82
2019-05-11T11:11:19.500Z,46.09
2019-05-11T11:15:29.031Z,45.85
2019-05-11T11:19:38.084Z,44.75
2019-05-11T11:23:48.071Z,43.93
2019-05-11T11:27:57.785Z,45.86
2019-05-11T11:32:05.328Z,47.16
2019-05-11T11:36:13.527Z,43.92
2019-05-11T11:40:21.555Z,43.72
2019-05-11T11:44:29.250Z,44.76
2019-05-11T11:48:38.545Z,46.50
2019-05-11T11:52:47.697Z,46.69
2019-05-11T11:56:55.746Z,52.87
2019-05-11T12:01:04.008Z,50.26
2019-05-11T12:05:11.677Z,51.68
2019-05-11T12:09:19.814Z,48.96
2019-05-11T12:13:29.738Z,56.32
2019-05-11T12:17:37.678Z,61.77
2019-05-11T12:21:45.813Z,66.24
2019-05-11T12:25:53.590Z,67.95
2019-05-11T12:30:01.512Z,67.54
2019-05-11T12:34:09.944Z,67.54
2019-05-11T12:38:18.321Z,66.86
2019-05-11T12:42:28.396Z,66.86
2019-05-11T12:46:37.369Z,65.53
2019-05-11T12:50:48.281Z,66.87
2019-05-11T12:54:55.852Z,64.80
2019-05-11T12:59:03.444Z,67.18
2019-05-11T13:03:10.809Z,69.00
2019-05-11T13:07:21.119Z,69.64
2019-05-11T13:11:28.807Z,70.05
2019-05-11T13:15:38.754Z,70.05
2019-05-11T13:19:48.038Z,68.63
2019-05-11T13:23:57.773Z,71.21
2019-05-11T13:28:08.396Z,74.33
2019-05-11T13:32:15.558Z,76.59
2019-05-11T13:36:23.782Z,76.43
2019-05-11T13:40:31.698Z,76.34
2019-05-11T13:44:40.098Z,75.87
2019-05-11T13:48:48.548Z,74.49
2019-05-11T13:52:58.428Z,74.49
2019-05-11T13:57:08.028Z,73.74
2019-05-11T14:01:18.185Z,73.04
2019-05-11T14:05:25.108Z,72.94
2019-05-11T14:09:33.116Z,71.17
2019-05-11T14:13:40.823Z,69.33
2019-05-11T14:18:04.461Z,65.29
2019-05-11T14:22:00.453Z,63.87
2019-05-11T14:26:09.292Z,65.65
2019-05-11T14:30:19.157Z,64.74
2019-05-11T14:34:28.386Z,63.75
2019-05-11T14:38:38.085Z,59.83
2019-05-11T14:42:48.736Z,61.93
2019-05-11T14:46:56.558Z,62.83
2019-05-11T14:51:05.132Z,66.60
2019-05-11T14:55:13.507Z,68.37
2019-05-11T14:59:21.058Z,69.97
2019-05-11T15:03:29.383Z,71.67
2019-05-11T15:07:38.591Z,72.82
2019-05-11T15:11:48.092Z,73.28
2019-05-11T15:15:58.652Z,72.51
2019-05-11T15:20:08.252Z,72.09
2019-05-11T15:24:18.527Z,72.09
2019-05-11T15:28:28.434Z,71.93
2019-05-11T15:32:37.488Z,69.87
2019-05-11T15:36:45.438Z,70.89
2019-05-11T15:40:53.201Z,70.89
2019-05-11T15:45:00.941Z,71.46
2019-05-11T15:49:09.086Z,71.15
2019-05-11T15:53:17.826Z,72.33
2019-05-11T15:57:27.977Z,72.90
2019-05-11T16:01:38.322Z,73.36
2019-05-11T16:05:47.756Z,72.64
2019-05-11T16:09:54.952Z,71.77
2019-05-11T16:14:02.873Z,71.37
2019-05-11T16:18:11.069Z,71.76
2019-05-11T16:22:21.123Z,71.76
2019-05-11T16:26:28.280Z,72.43
2019-05-11T16:30:37.858Z,72.44
2019-05-11T16:34:45.692Z,72.19
2019-05-11T16:38:53.706Z,72.12
2019-05-11T16:43:02.127Z,72.34
2019-05-11T16:47:09.631Z,71.91
2019-05-11T16:51:17.920Z,73.10
2019-05-11T16:55:26.376Z,72.85
2019-05-11T16:59:34.087Z,72.96
2019-05-11T17:03:42.719Z,74.22
2019-05-11T17:07:50.926Z,74.83
2019-05-11T17:11:58.761Z,75.80
2019-05-11T17:16:08.686Z,75.94
2019-05-11T17:20:18.749Z,76.23
2019-05-11T17:24:28.216Z,76.94
2019-05-11T17:28:37.887Z,76.71
2019-05-11T17:32:45.698Z,76.90
2019-05-11T17:36:57.066Z,75.92
2019-05-11T17:41:03.364Z,76.82
2019-05-11T17:45:12.923Z,77.53
2019-05-11T17:49:21.220Z,77.02
2019-05-11T17:53:29.285Z,76.87
2019-05-11T17:57:38.245Z,77.19
2019-05-11T18:01:46.898Z,77.49
2019-05-11T18:05:54.521Z,77.66
2019-05-11T18:10:03.563Z,77.60
2019-05-11T18:14:11.979Z,77.04
2019-05-11T18:18:19.599Z,77.74
2019-05-11T18:22:28.508Z,78.15
2019-05-11T18:26:38.138Z,78.71
2019-05-11T18:30:47.955Z,77.07
2019-05-11T18:34:55.697Z,77.07
2019-05-11T18:39:05.018Z,76.70
2019-05-11T18:43:12.827Z,78.40
2019-05-11T18:47:21.308Z,78.82
2019-05-11T18:51:29.350Z,78.56
2019-05-11T18:55:37.938Z,78.26
2019-05-11T18:59:48.280Z,77.96
2019-05-11T19:03:55.347Z,78.44
2019-05-11T19:08:03.559Z,78.74
2019-05-11T19:12:12.381Z,78.53
2019-05-11T19:16:20.534Z,78.67
2019-05-11T19:20:28.561Z,78.06
2019-05-11T19:24:38.155Z,78.11
2019-05-11T19:28:46.194Z,78.30
2019-05-11T19:32:53.884Z,78.65
2019-05-11T19:37:02.126Z,79.07
2019-05-11T19:41:10.323Z,78.94
2019-05-11T19:45:18.458Z,78.72
2019-05-11T19:49:27.914Z,78.50
2019-05-11T19:53:38.699Z,78.85
2019-05-11T19:57:48.220Z,78.95
2019-05-11T20:01:59.537Z,79.06
2019-05-11T20:06:08.725Z,78.07
2019-05-11T20:10:18.839Z,78.05
2019-05-11T20:14:28.359Z,78.16
2019-05-11T20:18:36.271Z,78.93
2019-05-11T20:22:44.198Z,78.34
2019-05-11T20:26:52.532Z,77.85
2019-05-11T20:31:00.224Z,78.79
2019-05-11T20:35:08.955Z,79.10
2019-05-11T20:39:17.915Z,78.70
2019-05-11T20:43:27.869Z,78.49
2019-05-11T20:47:38.017Z,78.89
2019-05-11T20:51:45.045Z,79.12
2019-05-11T20:55:53.237Z,79.50
2019-05-11T21:00:01.261Z,79.81
2019-05-11T21:04:08.890Z,79.77
2019-05-11T21:08:17.780Z,79.80
2019-05-11T21:12:28.685Z,79.59
2019-05-11T21:16:38.422Z,79.51
2019-05-11T21:20:48.201Z,79.18
2019-05-11T21:24:58.164Z,78.59
2019-05-11T21:29:08.389Z,78.23
2019-05-11T21:33:17.767Z,78.51
2019-05-11T21:37:27.753Z,78.70
2019-05-11T21:41:34.903Z,79.57
2019-05-11T21:45:42.942Z,79.95
2019-05-11T21:49:50.928Z,80.03
2019-05-11T21:53:58.649Z,79.98
2019-05-11T21:58:08.891Z,79.87
2019-05-11T22:02:18.346Z,79.86
2019-05-11T22:06:30.255Z,79.62
2019-05-11T22:10:38.577Z,78.87
2019-05-11T22:14:48.796Z,78.78
2019-05-11T22:18:57.962Z,78.55
2019-05-11T22:23:08.484Z,78.73
2019-05-11T22:27:18.383Z,79.12
2019-05-11T22:31:27.842Z,78.42
2019-05-11T22:35:37.587Z,78.56
2019-05-11T22:39:44.638Z,78.51
2019-05-11T22:43:52.742Z,78.75
2019-05-11T22:48:01.192Z,79.21
2019-05-11T22:52:08.876Z,79.39
2019-05-11T22:56:17.519Z,79.30
2019-05-11T23:00:42.534Z,78.88
2019-05-11T23:04:50.227Z,78.52
2019-05-11T23:08:58.818Z,79.53
2019-05-11T23:13:08.314Z,79.25
2019-05-11T23:17:18.309Z,78.39
2019-05-11T23:21:30.043Z,78.28
2019-05-11T23:25:35.722Z,78.09
2019-05-11T23:29:44.237Z,78.13
2019-05-11T23:33:52.071Z,78.13
2019-05-11T23:37:59.772Z,77.87
2019-05-11T23:42:08.045Z,78.48
2019-05-11T23:46:17.599Z,78.39
2019-05-11T23:50:27.882Z,78.73
2019-05-11T23:54:35.171Z,79.12
2019-05-11T23:58:43.317Z,79.66
